Time;durP1;ratioP1;P1;durP2;ratioP2;P2;SDS_P1;SDS_P2;PMS_P1;PMS_P2;Temp;Humidity;BMP_temperature;BMP_pressure;BME280_temperature;BME280_humidity;BME280_pressure;Samples;Min_cycle;Max_cycle;Signal;HPM_P1;HPM_P2
2022/06/13 00:02:12;;;;;;;20.77;5.15;;;13.50;99.90;;;;;;5116555;27;20086;-83
2022/06/13 00:05:00;;;;;;;17.50;5.50;;;13.50;99.90;;;;;;5116640;27;20039;-84
2022/06/13 00:07:46;;;;;;;16.77;4.80;;;13.40;99.90;;;;;;5131542;27;20053;-82
2022/06/13 00:10:33;;;;;;;12.52;5.53;;;13.40;99.90;;;;;;5131843;27;20050;-81
2022/06/13 00:13:19;;;;;;;16.92;5.32;;;13.40;99.90;;;;;;5113127;28;20055;-81
2022/06/13 00:16:05;;;;;;;12.98;5.72;;;13.40;99.90;;;;;;5114743;27;20559;-81
2022/06/13 00:18:52;;;;;;;13.32;5.35;;;13.40;99.90;;;;;;5112405;27;20054;-81
2022/06/13 00:21:38;;;;;;;18.77;5.25;;;13.40;99.90;;;;;;5129921;27;20062;-82
2022/06/13 00:24:24;;;;;;;18.35;4.72;;;13.40;99.90;;;;;;5113694;27;20050;-81
2022/06/13 00:27:11;;;;;;;16.02;5.78;;;13.50;99.90;;;;;;5133195;27;20050;-83
2022/06/13 00:29:57;;;;;;;15.60;5.32;;;13.50;99.90;;;;;;5133537;27;20086;-81
2022/06/13 00:32:43;;;;;;;16.25;4.70;;;13.50;99.90;;;;;;5113858;27;20142;-82
2022/06/13 00:35:29;;;;;;;16.27;5.72;;;13.50;99.90;;;;;;5099456;27;20055;-84
2022/06/13 00:38:16;;;;;;;14.30;5.63;;;13.50;99.90;;;;;;5131485;27;20058;-82
2022/06/13 00:41:05;;;;;;;12.80;5.28;;;13.50;99.90;;;;;;5130865;27;20494;-82
2022/06/13 00:43:52;;;;;;;14.75;5.70;;;13.50;99.90;;;;;;5114343;27;20050;-84
2022/06/13 00:46:39;;;;;;;18.17;6.07;;;13.50;99.90;;;;;;5113954;27;20126;-83
2022/06/13 00:49:31;;;;;;;16.40;5.70;;;13.50;99.90;;;;;;5112662;27;20050;-81
2022/06/13 00:52:34;;;;;;;12.82;4.85;;;13.60;99.90;;;;;;5113199;27;20047;-81
2022/06/13 00:55:43;;;;;;;15.70;5.38;;;13.60;99.90;;;;;;5131273;27;20054;-82
2022/06/13 00:58:34;;;;;;;13.68;4.85;;;13.60;99.90;;;;;;5131196;27;20108;-83
2022/06/13 01:01:22;;;;;;;16.52;5.72;;;13.60;99.90;;;;;;5100069;27;20083;-81
2022/06/13 01:04:09;;;;;;;18.05;5.97;;;13.60;99.90;;;;;;5112267;27;20078;-83
2022/06/13 01:06:57;;;;;;;16.35;6.00;;;13.60;99.90;;;;;;5131011;27;20058;-84
2022/06/13 01:12:48;;;;;;;15.00;5.25;;;13.60;99.90;;;;;;5130330;27;20051;-83
2022/06/13 01:15:52;;;;;;;17.80;5.72;;;13.60;99.90;;;;;;5113090;27;20047;-84
2022/06/13 01:19:20;;;;;;;11.95;5.10;;;13.60;99.90;;;;;;5132932;28;20054;-83
2022/06/13 01:22:44;;;;;;;18.45;5.43;;;13.70;99.90;;;;;;5112283;28;20103;-83
2022/06/13 01:25:49;;;;;;;13.68;5.38;;;13.70;99.90;;;;;;5130275;28;20101;-84
2022/06/13 01:28:50;;;;;;;28.42;5.88;;;13.70;99.90;;;;;;5131020;28;20499;-82
2022/06/13 01:31:44;;;;;;;13.50;4.40;;;13.70;99.90;;;;;;5130159;28;20092;-84
2022/06/13 01:34:48;;;;;;;18.70;5.28;;;13.70;99.90;;;;;;5131197;28;20058;-82
2022/06/13 01:37:46;;;;;;;19.58;5.68;;;13.70;99.90;;;;;;5112975;28;20055;-84
2022/06/13 01:40:50;;;;;;;15.52;4.45;;;13.70;99.90;;;;;;5112798;28;20039;-83
2022/06/13 01:43:46;;;;;;;11.00;3.80;;;13.70;99.90;;;;;;5131085;28;20058;-85
2022/06/13 01:46:51;;;;;;;13.70;4.03;;;13.70;99.90;;;;;;5112397;28;20103;-84
2022/06/13 01:49:43;;;;;;;;;;;13.70;99.90;;;;;;5131347;28;20108;-83
2022/06/13 01:52:42;;;;;;;15.73;3.90;;;13.70;99.90;;;;;;5130602;28;19931;-84
2022/06/13 01:55:40;;;;;;;12.18;4.32;;;13.70;99.90;;;;;;5111144;28;20108;-84
2022/06/13 01:58:30;;;;;;;10.15;3.70;;;13.70;99.90;;;;;;5112587;28;20047;-82
2022/06/13 02:01:28;;;;;;;17.30;4.20;;;13.70;99.90;;;;;;5116207;28;20107;-83
2022/06/13 02:04:21;;;;;;;13.63;3.80;;;13.70;99.90;;;;;;5110466;28;20440;-83
2022/06/13 02:07:10;;;;;;;9.48;2.58;;;13.80;99.90;;;;;;5111852;28;20062;-82
2022/06/13 02:10:04;;;;;;;15.93;2.63;;;13.80;99.90;;;;;;5111576;28;20062;-83
2022/06/13 02:12:56;;;;;;;12.05;2.67;;;13.80;99.90;;;;;;5097795;28;20061;-82
2022/06/13 02:15:47;;;;;;;13.35;2.60;;;13.90;99.90;;;;;;5116155;27;20055;-82
2022/06/13 02:18:39;;;;;;;9.43;3.42;;;13.90;99.90;;;;;;5134377;27;20052;-81
2022/06/13 02:21:33;;;;;;;9.30;2.63;;;13.90;99.90;;;;;;5114812;27;20050;-84
2022/06/13 02:24:23;;;;;;;12.73;2.65;;;13.90;99.90;;;;;;5133996;27;20051;-82
2022/06/13 02:27:12;;;;;;;13.98;3.47;;;14.00;99.90;;;;;;5133930;27;20075;-82
2022/06/13 02:30:06;;;;;;;12.60;2.67;;;14.00;99.90;;;;;;5133867;27;20039;-85
2022/06/13 02:33:02;;;;;;;14.35;3.00;;;14.00;99.90;;;;;;5119565;27;20086;-83
2022/06/13 02:36:00;;;;;;;18.02;3.83;;;14.00;99.90;;;;;;5116170;27;20065;-83
2022/06/13 02:38:57;;;;;;;13.98;2.65;;;14.00;99.90;;;;;;5102082;27;20047;-83
2022/06/13 02:42:35;;;;;;;6.10;2.08;;;14.00;99.90;;;;;;5102127;27;20047;-82
2022/06/13 02:45:27;;;;;;;8.98;2.75;;;14.10;99.90;;;;;;5116116;27;20043;-83
2022/06/13 02:48:22;;;;;;;8.50;2.30;;;14.10;99.90;;;;;;5115588;27;20411;-82
2022/06/13 02:51:18;;;;;;;24.65;3.50;;;14.10;99.90;;;;;;5115369;27;20051;-84
2022/06/13 02:54:11;;;;;;;5.65;1.63;;;14.10;99.90;;;;;;5115912;27;20134;-81
2022/06/13 02:57:27;;;;;;;8.82;2.03;;;14.10;99.90;;;;;;5101396;27;20515;-82
2022/06/13 03:00:52;;;;;;;;;;;14.20;99.90;;;;;;5101648;27;20063;-83
2022/06/13 03:03:44;;;;;;;8.65;1.98;;;14.20;99.90;;;;;;5051822;28;19921;-82
2022/06/13 03:06:57;;;;;;;10.27;2.00;;;14.20;99.90;;;;;;5034233;28;20127;-83
2022/06/13 03:09:53;;;;;;;8.32;1.80;;;14.20;99.90;;;;;;5105105;27;20394;-83
2022/06/13 03:12:52;;;;;;;12.60;2.90;;;14.20;99.90;;;;;;5110045;28;20494;-82
2022/06/13 03:15:44;;;;;;;10.25;2.15;;;14.20;99.90;;;;;;5112884;28;20062;-83
2022/06/13 03:18:41;;;;;;;10.68;2.65;;;14.20;99.90;;;;;;5112163;28;20407;-83
2022/06/13 03:21:40;;;;;;;11.00;2.53;;;14.20;99.90;;;;;;5112998;28;20047;-80
2022/06/13 03:24:41;;;;;;;8.40;2.70;;;14.20;99.90;;;;;;5084056;28;20073;-82
2022/06/13 03:27:36;;;;;;;8.70;1.88;;;14.10;99.90;;;;;;5112636;28;20051;-84
2022/06/13 03:30:25;;;;;;;10.63;2.40;;;14.10;99.90;;;;;;5112495;28;20051;-82
2022/06/13 03:36:25;;;;;;;10.20;1.83;;;14.10;99.90;;;;;;5111088;28;20077;-81
2022/06/13 03:39:25;;;;;;;8.63;2.17;;;14.10;99.90;;;;;;5112707;28;20112;-81
2022/06/13 03:42:18;;;;;;;12.20;2.63;;;14.10;99.90;;;;;;5111435;28;20039;-82
2022/06/13 03:45:18;;;;;;;7.07;1.73;;;14.20;99.90;;;;;;5110273;28;20134;-84
2022/06/13 03:48:23;;;;;;;7.20;2.00;;;14.20;99.90;;;;;;5110997;28;20083;-84
2022/06/13 03:51:09;;;;;;;8.90;2.03;;;14.20;99.90;;;;;;5111136;28;20054;-84
2022/06/13 03:54:08;;;;;;;5.97;1.75;;;14.20;99.90;;;;;;5111588;28;20043;-82
2022/06/13 03:57:00;;;;;;;9.70;1.63;;;14.20;99.90;;;;;;5111191;28;20447;-83
2022/06/13 03:59:54;;;;;;;8.95;2.75;;;14.20;99.90;;;;;;5110418;28;20055;-82
2022/06/13 04:02:43;;;;;;;9.18;1.90;;;14.30;99.90;;;;;;5095594;28;20079;-83
2022/06/13 04:05:31;;;;;;;11.98;2.67;;;14.30;99.90;;;;;;5111346;28;20444;-83
2022/06/13 04:08:18;;;;;;;9.00;2.47;;;14.40;99.90;;;;;;5111083;28;20449;-83
2022/06/13 04:11:39;;;;;;;10.98;2.20;;;14.40;99.90;;;;;;5109902;28;20055;-84
2022/06/13 04:15:03;;;;;;;8.20;1.73;;;14.40;99.90;;;;;;5109493;28;20535;-84
2022/06/13 04:18:02;;;;;;;7.93;1.95;;;14.40;99.90;;;;;;5109318;28;20050;-82
2022/06/13 04:21:10;;;;;;;7.55;1.20;;;14.40;99.90;;;;;;5111131;28;20472;-81
2022/06/13 04:24:15;;;;;;;6.65;1.20;;;14.20;99.90;;;;;;5110788;28;20060;-82
2022/06/13 04:27:13;;;;;;;14.80;2.65;;;14.00;99.90;;;;;;5110591;28;20043;-80
2022/06/13 04:30:14;;;;;;;13.57;2.50;;;13.80;99.90;;;;;;5094300;28;20048;-82
2022/06/13 04:33:30;;;;;;;19.40;2.50;;;13.60;99.90;;;;;;5110220;28;20055;-82
2022/06/13 04:36:17;;;;;;;14.57;2.92;;;13.50;99.90;;;;;;5109412;28;20043;-81
2022/06/13 04:39:07;;;;;;;24.80;3.67;;;13.40;99.90;;;;;;5109451;28;20518;-81
2022/06/13 04:41:55;;;;;;;16.75;2.60;;;13.40;99.90;;;;;;5108895;28;20403;-81
2022/06/13 04:44:43;;;;;;;14.55;2.45;;;13.30;99.90;;;;;;5110390;28;20495;-82
2022/06/13 04:47:30;;;;;;;9.15;1.92;;;13.20;99.90;;;;;;5112420;28;20368;-83
2022/06/13 04:50:22;;;;;;;13.32;1.92;;;13.20;99.90;;;;;;5110491;28;20131;-80
2022/06/13 04:53:18;;;;;;;13.40;2.22;;;13.10;99.90;;;;;;5109354;28;20047;-81
2022/06/13 04:56:05;;;;;;;13.85;2.47;;;13.10;99.90;;;;;;5110377;28;20039;-81
2022/06/13 04:58:53;;;;;;;9.93;2.20;;;13.20;99.90;;;;;;5110880;28;20108;-81
2022/06/13 05:01:46;;;;;;;17.00;2.42;;;13.40;99.90;;;;;;5110073;28;20521;-84
2022/06/13 05:04:33;;;;;;;12.57;2.13;;;13.50;99.90;;;;;;5109116;28;20093;-83
2022/06/13 05:07:22;;;;;;;8.90;1.80;;;13.60;99.90;;;;;;5110561;28;20043;-81
2022/06/13 05:10:16;;;;;;;7.65;1.70;;;13.70;99.90;;;;;;5108448;28;20143;-83
2022/06/13 05:13:03;;;;;;;10.55;1.55;;;13.80;99.90;;;;;;5108036;28;20611;-81
2022/06/13 05:15:58;;;;;;;10.80;2.35;;;13.90;99.90;;;;;;5109598;28;20498;-83
2022/06/13 05:19:13;;;;;;;8.20;1.67;;;14.00;99.90;;;;;;5110009;28;20053;-82
2022/06/13 05:22:08;;;;;;;8.88;1.85;;;14.00;99.90;;;;;;5110342;28;20044;-82
2022/06/13 05:24:54;;;;;;;7.80;1.42;;;14.00;99.90;;;;;;5108199;28;20052;-81
2022/06/13 05:27:40;;;;;;;13.30;2.03;;;14.10;99.90;;;;;;5108581;28;20051;-82
2022/06/13 05:30:27;;;;;;;7.05;1.98;;;14.20;99.90;;;;;;5109526;28;20083;-83
2022/06/13 05:33:15;;;;;;;7.07;1.27;;;14.20;99.90;;;;;;5110346;28;20112;-82
2022/06/13 05:36:06;;;;;;;10.32;2.75;;;14.30;99.90;;;;;;5108241;28;20060;-82
2022/06/13 05:38:58;;;;;;;7.32;1.50;;;14.30;99.90;;;;;;5108160;28;20059;-82
2022/06/13 05:41:44;;;;;;;10.30;1.77;;;14.30;99.90;;;;;;5110429;28;20495;-81
2022/06/13 05:44:30;;;;;;;7.28;1.55;;;14.40;99.90;;;;;;5108131;28;20051;-80
2022/06/13 05:47:19;;;;;;;9.98;2.33;;;14.40;99.90;;;;;;5093864;28;20109;-82
2022/06/13 05:50:05;;;;;;;12.50;2.15;;;14.40;99.90;;;;;;5111434;28;20059;-82
2022/06/13 05:52:52;;;;;;;10.85;1.60;;;14.10;99.90;;;;;;5113459;28;20056;-82
2022/06/13 05:55:39;;;;;;;9.43;1.30;;;13.90;99.90;;;;;;5112697;28;20039;-81
2022/06/13 05:58:25;;;;;;;12.93;2.15;;;13.90;99.90;;;;;;5113268;28;20791;-80
2022/06/13 06:01:13;;;;;;;7.43;1.45;;;13.80;99.90;;;;;;5112027;28;20047;-82
2022/06/13 06:03:59;;;;;;;7.80;1.10;;;13.80;99.90;;;;;;5113186;28;20122;-80
2022/06/13 06:06:46;;;;;;;9.57;1.20;;;14.00;99.90;;;;;;5113533;28;20043;-82
2022/06/13 06:09:32;;;;;;;10.48;1.50;;;14.20;99.90;;;;;;5113779;28;20040;-81
2022/06/13 06:12:18;;;;;;;5.00;0.60;;;14.30;99.90;;;;;;5113292;27;20048;-79
2022/06/13 06:15:05;;;;;;;5.00;0.90;;;14.60;99.90;;;;;;5115725;27;20510;-80
2022/06/13 06:17:51;;;;;;;7.63;0.90;;;14.80;99.90;;;;;;5118471;27;20055;-80
2022/06/13 06:20:39;;;;;;;10.70;1.63;;;15.10;99.90;;;;;;5134240;27;20059;-82
2022/06/13 06:23:26;;;;;;;6.68;1.13;;;15.30;99.90;;;;;;5134677;27;20196;-81
2022/06/13 06:26:15;;;;;;;5.60;1.20;;;15.30;99.90;;;;;;5134395;27;20399;-83
2022/06/13 06:29:01;;;;;;;6.60;1.27;;;15.30;99.90;;;;;;5118103;27;20078;-80
2022/06/13 06:31:47;;;;;;;8.23;1.10;;;15.30;99.90;;;;;;5133288;27;20910;-83
2022/06/13 06:34:34;;;;;;;10.02;2.03;;;15.40;99.90;;;;;;5115313;27;20051;-80
2022/06/13 06:37:20;;;;;;;7.38;1.48;;;15.60;99.90;;;;;;5134385;27;20606;-83
2022/06/13 06:40:08;;;;;;;12.80;2.25;;;15.50;99.90;;;;;;5118316;27;20054;-82
2022/06/13 06:42:55;;;;;;;16.67;2.33;;;15.30;99.90;;;;;;5134030;27;20039;-81
2022/06/13 06:45:44;;;;;;;9.18;1.60;;;15.10;99.90;;;;;;5133048;27;20494;-81
2022/06/13 06:48:31;;;;;;;7.68;0.93;;;15.00;99.90;;;;;;5115032;27;20051;-81
2022/06/13 06:51:17;;;;;;;8.95;1.10;;;15.30;99.90;;;;;;5100582;27;20046;-81
2022/06/13 07:00:13;;;;;;;11.63;1.30;;;15.70;99.90;;;;;;5114793;27;20055;-81
2022/06/13 07:03:00;;;;;;;6.28;1.65;;;15.90;99.90;;;;;;5131487;27;20064;-81
2022/06/13 07:05:46;;;;;;;8.50;1.50;;;16.00;99.90;;;;;;5134083;27;20039;-82
2022/06/13 07:08:34;;;;;;;5.93;1.30;;;16.10;99.90;;;;;;5133457;27;20441;-82
2022/06/13 07:14:33;;;;;;;3.75;1.10;;;16.30;99.90;;;;;;5132852;27;20563;-80
2022/06/13 07:17:20;;;;;;;7.55;1.23;;;16.40;99.90;;;;;;5133151;27;20436;-82
2022/06/13 07:20:07;;;;;;;7.20;1.58;;;16.50;99.90;;;;;;5133489;27;20046;-85
2022/06/13 07:22:54;;;;;;;6.75;1.58;;;16.60;99.90;;;;;;5117731;27;20039;-81
2022/06/13 07:25:40;;;;;;;8.02;1.15;;;16.70;99.90;;;;;;5113554;27;20100;-80
2022/06/13 07:28:27;;;;;;;7.68;1.40;;;16.80;99.90;;;;;;5114792;27;20114;-80
2022/06/13 07:31:19;;;;;;;13.02;2.08;;;16.90;99.90;;;;;;5132287;27;20050;-81
2022/06/13 07:34:11;;;;;;;7.55;1.00;;;17.00;99.90;;;;;;5099389;27;20395;-81
2022/06/13 07:36:59;;;;;;;7.68;1.67;;;17.10;99.90;;;;;;5113424;27;20458;-81
2022/06/13 07:39:45;;;;;;;8.52;1.45;;;17.20;99.90;;;;;;5112745;27;20076;-82
2022/06/13 07:42:40;;;;;;;5.13;1.08;;;17.40;99.90;;;;;;5131944;27;20414;-82
2022/06/13 07:45:29;;;;;;;7.97;1.67;;;17.50;99.90;;;;;;5132087;27;20182;-84
2022/06/13 07:48:16;;;;;;;5.25;1.40;;;17.60;99.90;;;;;;5117527;27;20080;-82
2022/06/13 07:51:02;;;;;;;4.50;1.08;;;17.80;99.90;;;;;;5132687;27;20058;-80
2022/06/13 07:53:49;;;;;;;5.88;1.00;;;17.80;99.90;;;;;;5099910;27;20050;-82
2022/06/13 07:56:36;;;;;;;8.63;1.02;;;17.80;99.90;;;;;;5131807;27;20095;-82
2022/06/13 07:59:27;;;;;;;4.63;0.98;;;17.90;99.90;;;;;;5113470;27;20660;-82
2022/06/13 08:02:18;;;;;;;7.40;1.13;;;18.00;99.90;;;;;;5116461;27;20051;-82
2022/06/13 08:05:05;;;;;;;8.35;1.73;;;18.00;99.90;;;;;;5116922;27;20050;-81
2022/06/13 08:07:51;;;;;;;7.00;1.35;;;18.00;99.90;;;;;;5133367;27;20121;-82
2022/06/13 08:10:39;;;;;;;5.63;1.20;;;18.10;99.90;;;;;;5132343;27;20137;-79
2022/06/13 08:13:25;;;;;;;6.45;0.98;;;18.10;99.90;;;;;;5129527;27;20479;-82
2022/06/13 08:16:12;;;;;;;5.63;1.23;;;18.00;99.90;;;;;;5132070;27;20043;-83
2022/06/13 08:18:58;;;;;;;5.75;1.17;;;18.10;99.90;;;;;;5131468;27;20136;-81
2022/06/13 08:21:44;;;;;;;4.38;0.85;;;18.00;99.90;;;;;;5099685;27;20039;-81
2022/06/13 08:24:30;;;;;;;9.48;1.27;;;18.10;99.90;;;;;;5130797;27;20050;-81
2022/06/13 08:27:17;;;;;;;8.85;1.80;;;18.20;99.90;;;;;;5131403;27;20055;-83
2022/06/13 08:30:03;;;;;;;9.38;1.40;;;18.40;99.90;;;;;;5116735;27;20384;-81
2022/06/13 08:32:50;;;;;;;6.95;1.50;;;18.50;99.90;;;;;;5131808;27;20514;-80
2022/06/13 08:35:36;;;;;;;7.75;1.85;;;18.00;99.90;;;;;;5116888;27;20051;-82
2022/06/13 08:38:23;;;;;;;11.70;1.45;;;18.00;99.90;;;;;;5131306;27;20054;-83
2022/06/13 08:41:15;;;;;;;8.40;1.25;;;18.10;99.90;;;;;;5131117;27;20043;-82
2022/06/13 08:44:38;;;;;;;9.80;1.40;;;18.50;99.90;;;;;;5116489;27;20447;-81
2022/06/13 08:47:36;;;;;;;8.00;1.50;;;18.70;99.90;;;;;;5131569;27;20050;-81
2022/06/13 08:50:37;;;;;;;7.47;1.77;;;18.80;99.90;;;;;;5131551;27;20515;-80
2022/06/13 08:53:27;;;;;;;7.40;1.35;;;18.90;99.90;;;;;;5098307;27;20055;-79
2022/06/13 08:56:17;;;;;;;10.38;1.85;;;19.20;99.90;;;;;;5130701;27;20054;-80
2022/06/13 08:59:25;;;;;;;7.45;2.00;;;19.10;99.90;;;;;;5114664;27;20051;-79
2022/06/13 09:02:34;;;;;;;11.05;1.88;;;19.40;99.90;;;;;;5130227;27;20054;-81
2022/06/13 09:05:23;;;;;;;9.93;1.77;;;19.60;99.90;;;;;;5131617;27;20279;-80
2022/06/13 09:08:22;;;;;;;10.68;2.38;;;20.10;99.90;;;;;;5130386;27;20491;-80
2022/06/13 09:11:14;;;;;;;8.02;1.60;;;19.90;98.40;;;;;;5129752;27;20115;-79
2022/06/13 09:14:12;;;;;;;11.02;2.13;;;19.50;99.10;;;;;;5130028;27;20133;-80
2022/06/13 09:17:23;;;;;;;9.93;1.38;;;18.80;99.70;;;;;;5112926;28;20178;-80
2022/06/13 09:20:10;;;;;;;10.65;1.90;;;18.50;99.90;;;;;;5111820;28;20059;-81
2022/06/13 09:23:35;;;;;;;10.20;2.47;;;18.80;99.90;;;;;;5111543;28;20573;-80
2022/06/13 09:26:28;;;;;;;9.90;1.80;;;19.20;99.40;;;;;;5100121;28;20054;-79
2022/06/13 09:29:18;;;;;;;8.13;2.15;;;19.50;98.80;;;;;;5130615;28;20073;-80
2022/06/13 09:32:10;;;;;;;9.13;2.00;;;19.70;99.10;;;;;;5131141;28;20039;-80
2022/06/13 09:35:16;;;;;;;9.60;1.80;;;19.90;99.60;;;;;;5130764;28;20043;-82
2022/06/13 09:38:13;;;;;;;12.23;2.35;;;20.10;98.40;;;;;;5112632;28;20054;-81
2022/06/13 09:41:03;;;;;;;9.60;2.38;;;20.00;98.20;;;;;;5113005;28;20051;-82
2022/06/13 09:44:03;;;;;;;7.13;1.65;;;20.20;97.10;;;;;;5130618;28;20039;-80
2022/06/13 09:47:24;;;;;;;10.20;1.58;;;19.90;96.90;;;;;;5111741;28;20175;-81
2022/06/13 09:50:29;;;;;;;8.68;1.60;;;19.30;97.80;;;;;;5130512;28;20043;-81
2022/06/13 09:53:19;;;;;;;6.72;2.13;;;19.60;98.50;;;;;;5111531;28;20081;-80
2022/06/13 09:56:20;;;;;;;7.05;2.10;;;20.10;99.60;;;;;;5112280;28;20043;-82
2022/06/13 09:59:39;;;;;;;6.95;1.85;;;20.00;99.10;;;;;;5130464;28;20399;-80
2022/06/13 10:02:45;;;;;;;8.57;1.73;;;19.90;98.20;;;;;;5112569;28;20135;-80
2022/06/13 10:05:47;;;;;;;14.30;2.78;;;19.90;98.80;;;;;;5112100;28;20506;-81
2022/06/13 10:08:38;;;;;;;13.50;2.42;;;19.80;98.20;;;;;;5130470;28;20051;-81
2022/06/13 10:11:48;;;;;;;11.02;2.72;;;19.80;98.70;;;;;;5130042;27;20051;-81
2022/06/13 10:14:53;;;;;;;10.77;2.45;;;19.50;99.30;;;;;;5129422;28;20582;-82
2022/06/13 10:17:55;;;;;;;11.13;2.13;;;19.10;99.70;;;;;;5129847;28;20440;-83
2022/06/13 10:20:51;;;;;;;14.77;2.88;;;19.20;99.90;;;;;;5129913;28;20051;-82
2022/06/13 10:23:54;;;;;;;11.32;1.83;;;19.80;99.90;;;;;;5131008;28;20446;-82
2022/06/13 10:27:07;;;;;;;9.32;2.33;;;20.10;98.40;;;;;;5129432;28;20134;-82
2022/06/13 10:30:29;;;;;;;7.43;2.08;;;20.30;97.50;;;;;;5130039;28;20088;-82
2022/06/13 10:33:52;;;;;;;15.43;2.55;;;20.40;97.80;;;;;;5100863;28;20039;-82
2022/06/13 10:36:59;;;;;;;15.40;2.20;;;20.70;97.70;;;;;;5116006;27;20066;-81
2022/06/13 10:39:47;;;;;;;10.43;1.80;;;20.90;97.20;;;;;;5087047;27;20054;-81
2022/06/13 10:42:36;;;;;;;7.93;1.70;;;21.10;97.60;;;;;;5118829;27;20043;-81
2022/06/13 10:45:23;;;;;;;11.73;2.33;;;21.20;97.10;;;;;;5133472;27;20043;-82
2022/06/13 10:48:48;;;;;;;8.73;1.80;;;21.40;96.60;;;;;;5101769;27;20486;-81
2022/06/13 10:51:37;;;;;;;12.88;2.70;;;21.20;95.90;;;;;;5133924;27;20035;-82
2022/06/13 10:54:30;;;;;;;9.20;1.48;;;21.50;96.30;;;;;;5133870;27;20525;-82
2022/06/13 10:57:28;;;;;;;10.80;2.97;;;21.60;96.30;;;;;;5132953;27;20047;-80
2022/06/13 11:00:24;;;;;;;9.35;1.98;;;21.80;94.70;;;;;;5132485;27;20145;-81
2022/06/13 11:03:16;;;;;;;11.32;2.00;;;21.80;94.60;;;;;;5113505;27;20046;-81
2022/06/13 11:06:14;;;;;;;9.52;2.20;;;21.50;95.10;;;;;;5132527;27;20053;-80
2022/06/13 11:09:02;;;;;;;10.05;1.77;;;21.00;96.40;;;;;;5115520;27;20138;-81
2022/06/13 11:11:58;;;;;;;7.05;1.88;;;21.20;97.50;;;;;;5132963;27;20040;-80
2022/06/13 11:24:36;;;;;;;8.77;1.92;;;21.20;95.00;;;;;;5132707;27;20495;-82
2022/06/13 11:27:42;;;;;;;;;;;21.20;96.30;;;;;;5132619;27;20059;-82
2022/06/13 11:33:16;;;;;;;12.30;2.17;;;21.30;96.60;;;;;;5114137;27;20073;-81
2022/06/13 11:36:18;;;;;;;9.43;1.52;;;21.60;94.90;;;;;;5114405;27;20051;-82
2022/06/13 11:39:05;;;;;;;8.13;1.42;;;21.80;93.40;;;;;;5113496;27;20082;-80
2022/06/13 11:41:51;;;;;;;5.90;1.38;;;21.80;93.50;;;;;;5132250;27;20478;-81
2022/06/13 11:44:42;;;;;;;6.45;1.80;;;21.40;93.40;;;;;;5117204;27;20055;-80
2022/06/13 11:47:46;;;;;;;7.90;1.50;;;21.80;93.70;;;;;;5131775;27;20050;-81
2022/06/13 11:50:35;;;;;;;8.98;1.60;;;22.10;93.20;;;;;;5132041;27;20115;-81
2022/06/13 11:53:36;;;;;;;8.63;1.27;;;22.10;93.80;;;;;;5132342;27;20497;-81
2022/06/13 11:56:29;;;;;;;7.60;1.88;;;22.60;94.10;;;;;;5132093;27;20042;-80
2022/06/13 11:59:18;;;;;;;8.20;1.67;;;22.50;93.70;;;;;;5132345;27;20184;-80
2022/06/13 12:02:22;;;;;;;10.18;1.48;;;22.90;92.80;;;;;;5113639;27;20047;-80
2022/06/13 12:05:49;;;;;;;5.63;1.30;;;23.20;91.90;;;;;;5099962;27;20054;-81
2022/06/13 12:08:35;;;;;;;7.88;1.20;;;23.00;92.40;;;;;;5098049;27;20124;-82
2022/06/13 12:11:23;;;;;;;5.65;1.00;;;22.90;92.20;;;;;;5132193;27;20383;-81
2022/06/13 12:14:09;;;;;;;4.85;1.08;;;23.10;91.70;;;;;;5131636;27;20142;-81
2022/06/13 12:17:40;;;;;;;9.00;1.80;;;23.00;92.60;;;;;;5131790;27;20047;-81
2022/06/13 12:20:45;;;;;;;5.57;1.50;;;23.60;90.30;;;;;;5109620;27;20039;-82
2022/06/13 12:24:08;;;;;;;6.28;1.42;;;24.40;91.10;;;;;;5131888;27;20047;-81
2022/06/13 12:27:06;;;;;;;7.60;1.35;;;24.60;90.50;;;;;;5119664;27;20054;-80
2022/06/13 12:29:55;;;;;;;5.47;1.00;;;24.70;87.50;;;;;;5131567;27;20054;-81
2022/06/13 12:32:51;;;;;;;6.53;1.75;;;24.40;88.50;;;;;;5131323;27;20043;-81
2022/06/13 12:36:15;;;;;;;4.38;1.25;;;24.20;88.80;;;;;;5113542;27;20043;-81
2022/06/13 12:39:12;;;;;;;5.10;1.00;;;24.70;88.70;;;;;;5131614;27;20039;-81
2022/06/13 12:42:19;;;;;;;5.70;1.25;;;24.50;78.90;;;;;;5130845;27;20047;-80
2022/06/13 12:45:14;;;;;;;6.07;1.52;;;24.20;81.70;;;;;;5130958;27;20452;-81
2022/06/13 12:48:06;;;;;;;7.10;1.73;;;24.30;84.90;;;;;;5131668;27;20047;-80
2022/06/13 12:51:20;;;;;;;3.28;0.95;;;24.30;83.00;;;;;;5132141;27;20485;-81
2022/06/13 12:54:32;;;;;;;7.00;1.00;;;23.90;82.30;;;;;;5112596;27;20403;-80
2022/06/13 12:57:47;;;;;;;5.40;1.23;;;24.20;87.70;;;;;;5131428;27;20182;-81
2022/06/13 13:00:50;;;;;;;7.90;1.40;;;24.70;82.90;;;;;;5112351;27;20054;-81
2022/06/13 13:04:04;;;;;;;7.07;0.95;;;24.90;80.50;;;;;;5130613;27;20071;-80
2022/06/13 13:06:53;;;;;;;5.07;1.50;;;24.80;81.30;;;;;;5116304;27;20096;-80
2022/06/13 13:09:57;;;;;;;6.63;1.27;;;24.90;81.50;;;;;;5131671;27;20047;-81
2022/06/13 13:13:17;;;;;;;8.38;1.88;;;24.80;81.90;;;;;;5130759;27;20391;-80
2022/06/13 13:16:39;;;;;;;7.72;1.48;;;24.50;81.70;;;;;;5131147;27;20111;-81
2022/06/13 13:19:39;;;;;;;4.93;1.10;;;25.20;83.70;;;;;;5130793;27;20487;-80
2022/06/13 13:22:34;;;;;;;3.70;0.93;;;25.50;80.30;;;;;;5104212;28;20116;-80
2022/06/13 13:25:25;;;;;;;8.13;2.00;;;25.60;77.30;;;;;;5131555;28;20047;-81
2022/06/13 13:28:28;;;;;;;9.70;1.45;;;25.00;74.30;;;;;;5132560;27;20049;-80
2022/06/13 13:31:45;;;;;;;8.23;1.80;;;25.10;77.40;;;;;;5131207;28;20605;-80
2022/06/13 13:34:50;;;;;;;7.22;1.52;;;25.60;78.60;;;;;;5130665;28;20432;-80
2022/06/13 13:37:43;;;;;;;5.78;1.48;;;26.00;76.50;;;;;;5131478;28;20384;-80
2022/06/13 13:40:45;;;;;;;5.40;0.98;;;26.00;72.10;;;;;;5130577;28;20546;-80
2022/06/13 13:43:37;;;;;;;8.50;1.63;;;25.90;66.90;;;;;;5098699;28;20499;-80
2022/06/13 13:46:46;;;;;;;5.07;0.93;;;25.80;71.60;;;;;;5130904;28;20047;-81
2022/06/13 13:49:39;;;;;;;5.93;1.27;;;25.80;65.80;;;;;;5098718;28;20051;-79
2022/06/13 13:52:32;;;;;;;4.53;1.20;;;26.20;67.80;;;;;;5131339;28;20043;-80
2022/06/13 13:55:26;;;;;;;5.40;0.93;;;25.90;66.00;;;;;;5112232;28;20100;-80
2022/06/13 13:58:22;;;;;;;4.30;0.93;;;26.00;64.00;;;;;;5112019;28;20046;-80
2022/06/13 14:01:30;;;;;;;5.93;1.35;;;25.20;64.00;;;;;;5131069;28;20350;-80
2022/06/13 14:04:51;;;;;;;4.38;1.17;;;24.80;64.10;;;;;;5098431;28;20184;-80
2022/06/13 14:07:59;;;;;;;5.65;1.10;;;25.10;63.30;;;;;;5123138;28;20047;-81
2022/06/13 14:10:49;;;;;;;5.88;1.40;;;25.40;68.40;;;;;;5114097;27;20051;-80
2022/06/13 14:13:38;;;;;;;7.07;1.50;;;25.90;65.80;;;;;;5112110;28;20058;-80
2022/06/13 14:16:24;;;;;;;4.03;1.80;;;25.80;62.00;;;;;;5112962;28;20485;-80
2022/06/13 14:19:33;;;;;;;5.93;1.40;;;26.00;61.60;;;;;;5102293;27;20059;-81
2022/06/13 14:22:22;;;;;;;3.78;0.95;;;26.10;63.00;;;;;;5133892;27;20401;-81
2022/06/13 14:25:14;;;;;;;4.63;1.02;;;25.90;59.80;;;;;;5101635;27;20503;-81
2022/06/13 14:28:09;;;;;;;5.55;0.90;;;26.10;59.60;;;;;;5118832;27;20473;-81
2022/06/13 14:31:03;;;;;;;6.43;1.27;;;27.20;59.00;;;;;;5133882;27;20054;-80
2022/06/13 14:37:12;;;;;;;5.90;1.20;;;26.20;54.10;;;;;;5116051;27;20047;-81
2022/06/13 14:40:08;;;;;;;5.75;1.20;;;25.30;56.80;;;;;;5134281;27;20132;-81
2022/06/13 14:42:56;;;;;;;7.65;1.00;;;25.40;59.90;;;;;;5114199;27;20445;-80
2022/06/13 14:46:14;;;;;;;5.25;1.20;;;25.70;60.70;;;;;;5133549;27;20383;-80
2022/06/13 14:49:09;;;;;;;8.40;1.13;;;26.40;60.90;;;;;;5111510;27;20058;-80
2022/06/13 14:52:10;;;;;;;4.88;1.13;;;26.50;61.10;;;;;;5133573;27;20130;-79
2022/06/13 14:55:05;;;;;;;4.97;1.23;;;26.40;54.60;;;;;;5115016;27;20170;-81
2022/06/13 14:57:53;;;;;;;6.35;1.30;;;26.40;57.10;;;;;;5118312;27;20043;-79
2022/06/13 15:01:17;;;;;;;3.97;1.13;;;26.70;57.40;;;;;;5131810;27;20043;-81
2022/06/13 15:04:03;;;;;;;6.65;1.73;;;26.50;55.40;;;;;;5101206;27;20043;-81
2022/06/13 15:06:59;;;;;;;5.38;0.90;;;25.60;57.10;;;;;;5132573;27;20402;-80
2022/06/13 15:09:52;;;;;;;5.68;1.05;;;25.00;60.20;;;;;;5100738;27;20050;-81
2022/06/13 15:12:43;;;;;;;7.70;1.38;;;24.70;64.00;;;;;;5131274;27;20051;-81
2022/06/13 15:15:34;;;;;;;5.95;1.02;;;24.10;69.30;;;;;;5099568;27;20479;-80
2022/06/13 15:18:24;;;;;;;2.45;0.90;;;23.90;71.90;;;;;;5133151;27;20058;-82
2022/06/13 15:21:18;;;;;;;7.72;1.15;;;23.80;75.10;;;;;;5132285;27;20134;-81
2022/06/13 15:24:11;;;;;;;8.55;1.63;;;23.60;76.30;;;;;;5116021;27;20039;-82
2022/06/13 15:27:05;;;;;;;3.50;1.33;;;23.90;74.80;;;;;;5100407;27;20059;-81
2022/06/13 15:29:57;;;;;;;5.50;1.25;;;23.60;71.50;;;;;;5132098;27;20072;-81
2022/06/13 15:32:43;;;;;;;7.95;1.90;;;23.40;75.30;;;;;;5116955;27;20502;-80
2022/06/13 15:35:53;;;;;;;4.75;1.30;;;23.00;78.80;;;;;;5113934;27;20043;-80
2022/06/13 15:38:44;;;;;;;6.78;1.33;;;22.70;80.00;;;;;;5114611;27;20039;-80
2022/06/13 15:41:37;;;;;;;5.93;1.33;;;22.80;80.90;;;;;;5132179;27;20047;-81